Time;durP1;ratioP1;P1;durP2;ratioP2;P2;SDS_P1;SDS_P2;PMS_P1;PMS_P2;Temp;Humidity;BMP_temperature;BMP_pressure;BME280_temperature;BME280_humidity;BME280_pressure;Samples;Min_cycle;Max_cycle;Signal;HPM_P1;HPM_P2
2022/10/20 00:01:27;;;;;;;9.97;8.97;;;10.90;99.90;;;;;;5033033;28;20199;-54
2022/10/20 00:03:53;;;;;;;11.60;8.83;;;11.00;99.90;;;;;;5033169;28;20172;-52
2022/10/20 00:06:25;;;;;;;9.97;8.97;;;10.90;99.90;;;;;;5034441;28;20178;-52
2022/10/20 00:08:52;;;;;;;9.97;9.00;;;10.80;99.90;;;;;;5042010;28;20202;-54
2022/10/20 00:11:20;;;;;;;9.73;8.53;;;10.70;99.90;;;;;;5033724;28;20183;-51
2022/10/20 00:13:47;;;;;;;11.67;8.40;;;;;;;;;;5036263;28;20179;-55
2022/10/20 00:16:13;;;;;;;10.50;7.73;;;10.80;99.90;;;;;;5033581;28;20183;-55
2022/10/20 00:18:38;;;;;;;11.73;8.63;;;10.90;99.90;;;;;;5034107;28;20211;-57
2022/10/20 00:21:12;;;;;;;11.13;8.37;;;10.30;99.90;;;;;;5033476;28;20266;-52
2022/10/20 00:23:37;;;;;;;9.70;8.20;;;11.00;99.90;;;;;;5034969;28;20196;-51
2022/10/20 00:26:19;;;;;;;9.80;8.60;;;10.70;99.90;;;;;;5033430;28;20179;-52
2022/10/20 00:28:45;;;;;;;9.13;8.23;;;;;;;;;;5033265;28;20264;-52
2022/10/20 00:31:11;;;;;;;10.00;8.23;;;10.60;99.90;;;;;;5033547;28;20187;-55
2022/10/20 00:33:37;;;;;;;8.43;7.63;;;10.80;99.90;;;;;;5032605;28;20180;-52
2022/10/20 00:36:05;;;;;;;8.30;7.50;;;10.90;99.90;;;;;;5032953;28;20226;-54
2022/10/20 00:38:32;;;;;;;8.90;8.00;;;10.60;99.90;;;;;;5036442;28;20199;-53
2022/10/20 00:41:02;;;;;;;9.17;7.77;;;;;;;;;;5052383;28;20734;-55
2022/10/20 00:43:47;;;;;;;8.93;8.00;;;;;;;;;;5052117;28;20183;-54
2022/10/20 00:46:14;;;;;;;8.53;7.70;;;;;;;;;;5053226;28;20663;-55
2022/10/20 00:48:42;;;;;;;8.47;7.47;;;10.40;99.90;;;;;;5052093;28;20257;-53
2022/10/20 00:51:08;;;;;;;8.93;8.00;;;10.20;99.90;;;;;;5052553;28;20175;-53
2022/10/20 00:53:34;;;;;;;11.27;7.93;;;;;;;;;;5052778;28;20238;-53
2022/10/20 00:56:00;;;;;;;9.50;7.00;;;;;;;;;;5052991;28;20244;-54
2022/10/20 00:58:27;;;;;;;8.40;7.43;;;10.20;99.90;;;;;;5052133;28;20242;-55
2022/10/20 01:00:56;;;;;;;8.30;7.43;;;10.60;99.90;;;;;;5052065;28;20264;-53
2022/10/20 01:03:29;;;;;;;11.57;7.70;;;10.50;99.90;;;;;;5052384;28;20186;-52
2022/10/20 01:05:54;;;;;;;8.30;7.40;;;10.30;99.90;;;;;;5052933;28;20250;-52
2022/10/20 01:08:20;;;;;;;9.90;7.53;;;;;;;;;;5052290;28;20199;-56
2022/10/20 01:11:09;;;;;;;9.03;7.40;;;10.20;99.90;;;;;;5053078;28;20207;-52
2022/10/20 01:13:40;;;;;;;8.33;7.33;;;10.10;99.90;;;;;;5052343;28;20179;-53
2022/10/20 01:16:22;;;;;;;7.87;6.77;;;;;;;;;;5052749;28;20246;-57
2022/10/20 01:18:52;;;;;;;8.13;7.10;;;;;;;;;;5052293;28;20203;-51
2022/10/20 01:21:18;;;;;;;8.10;7.30;;;;;;;;;;5051919;28;20203;-55
2022/10/20 01:24:08;;;;;;;9.73;7.13;;;10.30;99.90;;;;;;5052584;28;20210;-53
2022/10/20 01:26:53;;;;;;;8.47;7.23;;;10.20;99.90;;;;;;5052321;28;20164;-56
2022/10/20 01:29:27;;;;;;;9.50;7.50;;;10.20;99.90;;;;;;5052340;28;20175;-55
2022/10/20 01:32:10;;;;;;;9.60;8.47;;;10.20;99.90;;;;;;5052338;28;20171;-53
2022/10/20 01:34:45;;;;;;;8.80;7.80;;;;;;;;;;5052913;28;20171;-55
2022/10/20 01:37:32;;;;;;;9.30;7.80;;;10.50;99.90;;;;;;5052962;28;20190;-56
2022/10/20 01:40:18;;;;;;;8.37;7.57;;;;;;;;;;5052971;28;20252;-57
2022/10/20 01:42:46;;;;;;;8.67;7.20;;;;;;;;;;5010014;28;20189;-54
2022/10/20 01:45:14;;;;;;;8.23;7.27;;;10.10;99.90;;;;;;5010003;28;20188;-56
2022/10/20 01:47:41;;;;;;;8.23;7.43;;;10.20;99.90;;;;;;5008536;28;20872;-54
2022/10/20 01:50:09;;;;;;;9.60;8.03;;;10.10;99.90;;;;;;5009865;28;20646;-54
2022/10/20 01:52:36;;;;;;;9.30;7.83;;;10.10;99.90;;;;;;5010000;28;20193;-52
2022/10/20 01:55:08;;;;;;;12.00;8.20;;;10.00;99.90;;;;;;5009998;28;20299;-52
2022/10/20 01:57:42;;;;;;;10.97;9.10;;;;;;;;;;5009924;28;20223;-52
2022/10/20 02:00:10;;;;;;;9.40;8.40;;;10.00;99.90;;;;;;5009945;28;20226;-53
2022/10/20 02:03:00;;;;;;;9.60;8.60;;;10.00;99.90;;;;;;5008961;28;20646;-51
2022/10/20 02:05:49;;;;;;;10.17;9.07;;;9.90;99.90;;;;;;5009516;28;20184;-54
2022/10/20 02:08:15;;;;;;;9.40;8.40;;;;;;;;;;4993184;28;20271;-52
2022/10/20 02:10:50;;;;;;;10.10;9.07;;;10.00;99.90;;;;;;5009540;28;20721;-51
2022/10/20 02:13:18;;;;;;;9.73;8.53;;;10.00;99.90;;;;;;5009514;28;20191;-55
2022/10/20 02:15:49;;;;;;;11.10;8.93;;;10.00;99.90;;;;;;5010027;28;20180;-54
2022/10/20 02:18:21;;;;;;;9.67;8.60;;;9.70;99.90;;;;;;5009312;28;20271;-53
2022/10/20 02:20:51;;;;;;;10.43;8.20;;;9.90;99.90;;;;;;5046436;28;20298;-56
2022/10/20 02:23:17;;;;;;;9.30;8.20;;;;;;;;;;5050465;28;20178;-52
2022/10/20 02:25:43;;;;;;;10.10;8.47;;;;;;;;;;5050816;28;20182;-54
2022/10/20 02:28:12;;;;;;;9.80;8.73;;;9.90;99.90;;;;;;5051688;28;20219;-52
2022/10/20 02:30:39;;;;;;;10.07;8.43;;;9.70;99.90;;;;;;5051796;28;20187;-51
2022/10/20 02:33:06;;;;;;;9.67;8.67;;;9.80;99.90;;;;;;5051260;28;20179;-55
2022/10/20 02:35:32;;;;;;;9.40;7.80;;;;;;;;;;5050797;28;20266;-54
2022/10/20 02:37:58;;;;;;;10.23;8.33;;;10.30;99.90;;;;;;5050653;28;20191;-54
2022/10/20 02:40:24;;;;;;;9.20;8.37;;;;;;;;;;5050842;28;20207;-54
2022/10/20 02:42:50;;;;;;;9.70;8.70;;;;;;;;;;5051206;28;20215;-55
2022/10/20 02:45:16;;;;;;;9.30;8.30;;;9.50;99.90;;;;;;5051125;28;20178;-52
2022/10/20 02:47:42;;;;;;;9.67;8.40;;;;;;;;;;5051445;28;20249;-51
2022/10/20 02:50:08;;;;;;;9.63;8.10;;;;;;;;;;5051361;28;20221;-52
2022/10/20 02:52:35;;;;;;;12.20;8.23;;;9.70;99.90;;;;;;5049735;28;20180;-52
2022/10/20 02:55:01;;;;;;;9.70;8.70;;;9.70;99.90;;;;;;5050617;28;20258;-55
2022/10/20 02:57:27;;;;;;;10.80;9.63;;;;;;;;;;5050302;28;20314;-54
2022/10/20 02:59:53;;;;;;;10.00;9.00;;;;;;;;;;5051239;28;20206;-52
2022/10/20 03:02:19;;;;;;;10.43;9.30;;;;;;;;;;5050868;28;20175;-52
2022/10/20 03:04:45;;;;;;;10.10;8.70;;;;;;;;;;5050840;28;20182;-51
2022/10/20 03:07:11;;;;;;;11.60;9.17;;;9.70;99.90;;;;;;5050299;28;20525;-52
2022/10/20 03:09:37;;;;;;;10.93;9.43;;;9.60;99.90;;;;;;5050967;28;20230;-52
2022/10/20 03:12:03;;;;;;;10.97;9.57;;;;;;;;;;5050727;28;20200;-53
2022/10/20 03:14:29;;;;;;;10.60;9.03;;;9.60;99.90;;;;;;5050817;28;20179;-54
2022/10/20 03:16:54;;;;;;;10.17;9.03;;;9.80;99.90;;;;;;5050319;28;20536;-54
2022/10/20 03:19:20;;;;;;;11.57;9.80;;;9.30;99.90;;;;;;5050800;28;20201;-52
2022/10/20 03:21:47;;;;;;;10.83;9.73;;;9.50;99.90;;;;;;5050541;28;20680;-51
2022/10/20 03:24:13;;;;;;;11.30;10.20;;;;;;;;;;5050550;28;20198;-53
2022/10/20 03:26:39;;;;;;;11.77;9.90;;;;;;;;;;5050765;28;20175;-53
2022/10/20 03:29:05;;;;;;;12.93;10.30;;;;;;;;;;5050480;28;20186;-55
2022/10/20 03:31:31;;;;;;;10.97;9.87;;;9.50;99.90;;;;;;5050592;28;20245;-55
2022/10/20 03:33:56;;;;;;;11.10;10.00;;;9.50;99.90;;;;;;5050628;28;20623;-51
2022/10/20 03:36:22;;;;;;;14.70;11.53;;;;;;;;;;5053832;28;20182;-53
2022/10/20 03:38:48;;;;;;;14.00;12.40;;;9.50;99.90;;;;;;5054675;28;20225;-52
2022/10/20 03:41:14;;;;;;;15.00;12.20;;;9.40;99.90;;;;;;5054748;28;20206;-54
2022/10/20 03:43:39;;;;;;;12.67;11.37;;;9.30;99.90;;;;;;5054586;28;20175;-52
2022/10/20 03:46:08;;;;;;;13.37;11.97;;;9.40;99.90;;;;;;5054706;28;20187;-51
2022/10/20 03:48:34;;;;;;;12.57;11.23;;;9.40;99.90;;;;;;5053628;28;20191;-53
2022/10/20 03:51:00;;;;;;;13.03;11.43;;;9.60;99.90;;;;;;5054346;28;20714;-52
2022/10/20 03:53:26;;;;;;;15.10;13.50;;;9.20;99.90;;;;;;5054262;28;20237;-53
2022/10/20 03:55:52;;;;;;;13.13;11.73;;;9.20;99.90;;;;;;5054683;28;20175;-51
2022/10/20 03:58:18;;;;;;;14.20;12.13;;;9.20;99.90;;;;;;5054314;28;20680;-52
2022/10/20 04:00:44;;;;;;;18.30;16.40;;;9.40;99.90;;;;;;5053988;28;20606;-51
2022/10/20 04:03:09;;;;;;;26.63;23.90;;;9.30;99.90;;;;;;5054303;28;20261;-53
2022/10/20 04:05:35;;;;;;;37.50;33.50;;;9.10;99.90;;;;;;5053559;28;20209;-54
2022/10/20 04:08:02;;;;;;;24.50;21.93;;;;;;;;;;5053794;28;20191;-53
2022/10/20 04:10:28;;;;;;;17.20;15.50;;;9.10;99.90;;;;;;5054219;28;20258;-53
2022/10/20 04:12:57;;;;;;;15.77;13.70;;;10.70;99.90;;;;;;5054096;28;20315;-53
2022/10/20 04:15:22;;;;;;;14.57;13.13;;;9.30;99.90;;;;;;5053829;28;20217;-52
2022/10/20 04:17:48;;;;;;;13.13;11.83;;;9.20;99.90;;;;;;5053656;28;20234;-54
2022/10/20 04:20:13;;;;;;;12.73;10.90;;;9.20;99.90;;;;;;5053322;28;20207;-54
2022/10/20 04:22:39;;;;;;;12.03;10.83;;;9.20;99.90;;;;;;5052816;28;20206;-55
2022/10/20 04:25:05;;;;;;;13.40;12.00;;;9.30;99.90;;;;;;5053210;28;20164;-54
2022/10/20 04:27:31;;;;;;;13.47;12.10;;;9.30;99.90;;;;;;5054435;28;20194;-55
2022/10/20 04:29:56;;;;;;;13.87;12.47;;;9.30;99.90;;;;;;5054416;28;20334;-55
2022/10/20 04:32:22;;;;;;;16.17;14.47;;;;;;;;;;5053052;28;20175;-52
2022/10/20 04:34:48;;;;;;;16.73;15.03;;;;;;;;;;5051750;28;20179;-54
2022/10/20 04:37:14;;;;;;;18.47;16.47;;;;;;;;;;5051767;28;20640;-54
2022/10/20 04:39:40;;;;;;;17.37;14.97;;;9.20;99.90;;;;;;5051743;28;20222;-56
2022/10/20 04:42:05;;;;;;;16.27;14.50;;;9.20;99.90;;;;;;5051859;28;20171;-55
2022/10/20 04:44:31;;;;;;;21.97;19.50;;;;;;;;;;5053020;28;20182;-51
2022/10/20 04:46:57;;;;;;;16.20;14.50;;;9.20;99.90;;;;;;5050746;28;20261;-53
2022/10/20 04:49:22;;;;;;;16.70;14.90;;;9.20;99.90;;;;;;5051413;28;20197;-53
2022/10/20 04:51:48;;;;;;;11.23;9.83;;;;;;;;;;5052199;28;20186;-55
2022/10/20 04:54:14;;;;;;;10.53;9.37;;;8.80;99.90;;;;;;5051735;28;20175;-56
2022/10/20 04:56:40;;;;;;;11.77;9.50;;;;;;;;;;5052374;28;20170;-55
2022/10/20 04:59:06;;;;;;;10.90;9.70;;;;;;;;;;5092365;23;20242;-51
2022/10/20 05:01:32;;;;;;;10.70;9.47;;;;;;;;;;5032006;28;20204;-51
2022/10/20 05:03:58;;;;;;;11.17;10.03;;;;;;;;;;5031980;28;20526;-51
2022/10/20 05:06:31;;;;;;;13.87;12.43;;;8.70;99.90;;;;;;5032025;28;20164;-54
2022/10/20 05:08:59;;;;;;;16.33;14.47;;;8.90;99.90;;;;;;5032924;28;20202;-55
2022/10/20 05:11:27;;;;;;;16.20;12.97;;;8.80;99.90;;;;;;5031661;28;20195;-57
2022/10/20 05:13:53;;;;;;;12.20;11.00;;;8.80;99.90;;;;;;5032013;28;20255;-51
2022/10/20 05:16:19;;;;;;;11.70;10.50;;;;;;;;;;5031523;28;20258;-52
2022/10/20 05:18:46;;;;;;;13.40;11.93;;;8.70;99.90;;;;;;5032382;28;20222;-52
2022/10/20 05:21:17;;;;;;;12.03;10.83;;;8.70;99.90;;;;;;5031774;28;20204;-51
2022/10/20 05:23:44;;;;;;;12.57;11.27;;;;;;;;;;5030862;28;20171;-51
2022/10/20 05:26:18;;;;;;;14.40;12.67;;;8.70;99.90;;;;;;5032725;28;20664;-51
2022/10/20 05:28:45;;;;;;;15.70;14.10;;;;;;;;;;5031417;28;20237;-53
2022/10/20 05:31:11;;;;;;;23.37;20.90;;;8.90;99.90;;;;;;5032592;28;20171;-53
2022/10/20 05:33:37;;;;;;;40.23;30.87;;;;;;;;;;5031347;28;20844;-52
2022/10/20 05:36:10;;;;;;;47.40;38.87;;;8.90;99.90;;;;;;5031414;28;20261;-55
2022/10/20 05:38:36;;;;;;;19.87;17.77;;;9.00;99.90;;;;;;5031765;28;20287;-52
2022/10/20 05:41:10;;;;;;;17.13;14.57;;;8.90;99.90;;;;;;5030625;28;20195;-54
2022/10/20 05:43:37;;;;;;;15.77;14.07;;;8.90;99.90;;;;;;5025920;28;20213;-50
2022/10/20 05:46:03;;;;;;;15.00;13.50;;;8.90;99.90;;;;;;5032073;28;20183;-53
2022/10/20 05:48:29;;;;;;;14.03;12.63;;;8.90;99.90;;;;;;5032969;28;20219;-54
2022/10/20 05:50:54;;;;;;;14.30;12.20;;;8.90;99.90;;;;;;5027652;28;20183;-54
2022/10/20 05:53:20;;;;;;;13.37;11.80;;;8.80;99.90;;;;;;5033832;28;20238;-57
2022/10/20 05:55:45;;;;;;;13.70;12.37;;;9.20;99.90;;;;;;5028478;28;20172;-51
2022/10/20 05:58:11;;;;;;;12.83;11.53;;;8.90;99.90;;;;;;5031271;28;20614;-51
2022/10/20 06:00:41;;;;;;;16.27;14.07;;;9.00;99.90;;;;;;5030460;28;20230;-58
2022/10/20 06:03:09;;;;;;;15.50;13.90;;;8.90;99.90;;;;;;5056376;28;20187;-58
2022/10/20 06:05:35;;;;;;;13.10;11.80;;;9.00;99.90;;;;;;5030616;28;20187;-53
2022/10/20 06:08:01;;;;;;;15.43;12.63;;;9.00;99.90;;;;;;5031711;28;20191;-51
2022/10/20 06:10:26;;;;;;;14.90;12.23;;;9.50;99.90;;;;;;5031532;28;20175;-52
2022/10/20 06:12:52;;;;;;;12.90;11.50;;;9.50;99.90;;;;;;5029609;28;20179;-56
2022/10/20 06:15:17;;;;;;;10.43;9.43;;;9.10;99.90;;;;;;5032910;28;20612;-54
2022/10/20 06:17:45;;;;;;;11.10;9.90;;;9.10;99.90;;;;;;5028720;28;20204;-56
2022/10/20 06:20:11;;;;;;;11.67;9.90;;;9.20;99.90;;;;;;5028731;28;20258;-57
2022/10/20 06:22:37;;;;;;;12.20;11.00;;;9.20;99.90;;;;;;5023081;28;20948;-58
2022/10/20 06:25:03;;;;;;;12.53;10.67;;;9.30;99.90;;;;;;5024033;28;20176;-55
2022/10/20 06:27:28;;;;;;;9.13;8.23;;;9.30;99.90;;;;;;5033545;28;20176;-53
2022/10/20 06:29:54;;;;;;;14.60;13.27;;;9.30;99.90;;;;;;5030720;28;20184;-55
2022/10/20 06:32:20;;;;;;;12.20;11.00;;;9.40;99.90;;;;;;5030722;28;20187;-56
2022/10/20 06:34:45;;;;;;;11.47;10.27;;;9.50;99.90;;;;;;5036423;28;20181;-55
2022/10/20 06:37:11;;;;;;;10.83;9.77;;;9.60;99.90;;;;;;5039889;28;20171;-55
2022/10/20 06:39:36;;;;;;;11.47;10.30;;;9.70;99.90;;;;;;5031050;28;20273;-53
2022/10/20 06:42:04;;;;;;;8.30;7.53;;;9.70;99.90;;;;;;5030601;28;20184;-58
2022/10/20 06:44:30;;;;;;;7.70;6.90;;;9.90;99.90;;;;;;5028008;28;20282;-57
2022/10/20 06:46:55;;;;;;;8.07;7.27;;;9.90;99.90;;;;;;5030005;28;20219;-58
2022/10/20 06:49:21;;;;;;;8.60;7.60;;;10.10;99.90;;;;;;5030542;28;20195;-55
2022/10/20 06:51:47;;;;;;;9.33;7.60;;;10.10;99.90;;;;;;5037927;28;20182;-55
2022/10/20 06:54:13;;;;;;;7.07;6.40;;;10.10;99.90;;;;;;5041782;28;20587;-55
2022/10/20 06:56:39;;;;;;;9.83;7.17;;;10.10;99.90;;;;;;5050191;28;20167;-57
2022/10/20 06:59:05;;;;;;;7.30;6.60;;;10.20;99.90;;;;;;5032751;28;20285;-56
2022/10/20 07:01:36;;;;;;;7.67;6.80;;;10.20;99.90;;;;;;5036875;28;20286;-54
2022/10/20 07:04:09;;;;;;;7.40;6.70;;;10.20;99.90;;;;;;5040488;28;20240;-59
2022/10/20 07:06:37;;;;;;;7.07;6.07;;;10.30;99.90;;;;;;5028614;28;20171;-57
2022/10/20 07:09:06;;;;;;;7.57;6.17;;;10.30;99.90;;;;;;5033205;28;20271;-57
2022/10/20 07:11:31;;;;;;;6.53;5.83;;;10.40;99.90;;;;;;5030866;28;20180;-58
2022/10/20 07:13:57;;;;;;;8.30;6.50;;;10.50;99.90;;;;;;5032295;28;20702;-55
2022/10/20 07:16:25;;;;;;;7.03;5.93;;;10.50;99.90;;;;;;5036434;28;20549;-57
2022/10/20 07:18:51;;;;;;;6.53;5.90;;;10.70;99.90;;;;;;5044231;28;20677;-57
2022/10/20 07:21:20;;;;;;;6.57;5.90;;;10.90;99.90;;;;;;5033155;28;20199;-55
2022/10/20 07:23:46;;;;;;;5.63;5.10;;;11.00;99.90;;;;;;5028676;28;20753;-58
2022/10/20 07:26:18;;;;;;;6.23;5.63;;;11.40;99.90;;;;;;5033352;28;20182;-59
2022/10/20 07:28:49;;;;;;;5.90;5.40;;;11.70;99.90;;;;;;5033624;28;20242;-59
2022/10/20 07:31:21;;;;;;;5.93;5.43;;;12.10;99.90;;;;;;5034586;28;20553;-59
2022/10/20 07:33:47;;;;;;;5.57;5.07;;;12.60;99.90;;;;;;5028837;28;20694;-59
2022/10/20 07:36:22;;;;;;;6.93;5.77;;;12.90;99.90;;;;;;5031197;28;20642;-60
2022/10/20 07:38:50;;;;;;;5.20;4.70;;;13.30;99.90;;;;;;5031545;28;20211;-59
2022/10/20 07:41:16;;;;;;;5.57;4.70;;;13.90;99.90;;;;;;5033239;28;20197;-59
2022/10/20 07:43:42;;;;;;;5.30;4.50;;;15.10;99.90;;;;;;5031899;28;20171;-60
2022/10/20 07:46:09;;;;;;;4.70;4.20;;;15.30;99.90;;;;;;5025697;28;20176;-56
2022/10/20 07:48:35;;;;;;;4.17;3.87;;;15.60;99.90;;;;;;5027855;28;20213;-59
2022/10/20 07:51:16;;;;;;;4.33;3.93;;;15.30;99.90;;;;;;5034305;28;20190;-59
2022/10/20 07:53:42;;;;;;;4.60;4.20;;;;;;;;;;5036086;28;20190;-61
2022/10/20 07:56:09;;;;;;;4.97;3.80;;;;;;;;;;5037075;28;20689;-59
2022/10/20 07:58:35;;;;;;;4.43;4.03;;;16.80;99.90;;;;;;5045929;28;20219;-59
2022/10/20 08:01:00;;;;;;;4.03;3.63;;;17.80;99.90;;;;;;5031342;28;20203;-60
2022/10/20 08:03:26;;;;;;;4.00;3.60;;;;;;;;;;5035915;28;20175;-57
2022/10/20 08:05:52;;;;;;;3.77;3.37;;;;;;;;;;5045240;28;20267;-61
2022/10/20 08:08:18;;;;;;;3.37;3.13;;;;;;;;;;5039081;28;20227;-61
2022/10/20 08:10:44;;;;;;;3.93;3.03;;;20.70;97.70;;;;;;5033298;28;20184;-59
2022/10/20 08:13:09;;;;;;;3.92;3.20;;;22.70;96.80;;;;;;5033720;28;20537;-60
2022/10/20 08:15:35;;;;;;;7.32;3.10;;;22.80;93.50;;;;;;5033991;28;20515;-59
2022/10/20 08:18:01;;;;;;;3.30;3.00;;;24.40;92.10;;;;;;5034111;28;20192;-61
2022/10/20 08:20:26;;;;;;;3.28;2.63;;;25.50;89.30;;;;;;5037410;28;20233;-59
2022/10/20 08:22:52;;;;;;;4.07;2.50;;;25.90;86.70;;;;;;5044606;28;20175;-62
2022/10/20 08:25:17;;;;;;;3.28;2.88;;;27.20;93.30;;;;;;5053658;28;20245;-62
2022/10/20 08:27:43;;;;;;;3.63;2.95;;;27.20;78.30;;;;;;5053897;28;20274;-60
2022/10/20 08:30:09;;;;;;;3.15;2.80;;;27.00;78.70;;;;;;5053726;28;20520;-60
2022/10/20 08:32:34;;;;;;;3.42;2.80;;;27.90;76.90;;;;;;5054011;28;20217;-58
2022/10/20 08:35:00;;;;;;;2.45;2.30;;;28.40;73.60;;;;;;5053634;28;20690;-61
2022/10/20 08:37:29;;;;;;;3.05;2.75;;;28.00;73.70;;;;;;5053570;28;20246;-58
2022/10/20 08:39:54;;;;;;;3.42;2.53;;;28.20;94.20;;;;;;5053657;28;20298;-61
2022/10/20 08:42:20;;;;;;;3.85;2.20;;;28.50;70.70;;;;;;5053603;28;20250;-58
2022/10/20 08:44:47;;;;;;;2.35;2.15;;;28.00;69.20;;;;;;5052188;28;20191;-60
2022/10/20 08:47:26;;;;;;;3.28;2.30;;;27.90;69.00;;;;;;5053635;28;20168;-60
2022/10/20 08:49:52;;;;;;;2.30;2.10;;;28.40;94.40;;;;;;5036753;28;20199;-61
2022/10/20 08:52:22;;;;;;;2.15;2.00;;;28.20;67.00;;;;;;5033695;28;20545;-59
2022/10/20 08:54:52;;;;;;;2.05;1.80;;;29.30;66.80;;;;;;5039866;28;20172;-62
2022/10/20 08:57:24;;;;;;;1.70;1.60;;;30.30;63.50;;;;;;5044785;28;20175;-60
2022/10/20 08:59:52;;;;;;;2.17;2.08;;;31.30;91.50;;;;;;5053263;28;20239;-60
2022/10/20 09:02:18;;;;;;;2.03;1.80;;;31.10;59.60;;;;;;5053500;28;20559;-59
2022/10/20 09:04:51;;;;;;;3.15;1.80;;;31.20;57.70;;;;;;5053022;28;20247;-61
2022/10/20 09:07:23;;;;;;;4.13;1.77;;;30.70;64.90;;;;;;5053180;28;20220;-60
2022/10/20 09:09:49;;;;;;;3.08;1.70;;;30.70;58.00;;;;;;5044838;28;20198;-60
2022/10/20 09:12:16;;;;;;;2.22;1.85;;;;;;;;;;5031630;28;20179;-61
2022/10/20 09:14:42;;;;;;;2.00;1.70;;;29.90;57.70;;;;;;5030476;28;20675;-60
2022/10/20 09:17:17;;;;;;;1.67;1.58;;;29.40;57.50;;;;;;5049248;28;20247;-59
2022/10/20 09:19:51;;;;;;;1.92;1.73;;;29.80;58.90;;;;;;5032524;28;20274;-60
2022/10/20 09:22:19;;;;;;;2.35;1.75;;;30.80;56.60;;;;;;5032680;28;20187;-60
2022/10/20 09:24:45;;;;;;;1.60;1.50;;;31.40;55.50;;;;;;5032495;28;20171;-60
2022/10/20 09:27:33;;;;;;;2.35;1.40;;;31.50;54.00;;;;;;5032903;28;20526;-59
2022/10/20 09:30:17;;;;;;;1.70;1.60;;;32.50;85.90;;;;;;5033070;28;20180;-60
2022/10/20 09:32:43;;;;;;;1.60;1.50;;;32.90;52.20;;;;;;5032311;28;20178;-58
2022/10/20 09:35:26;;;;;;;1.65;1.50;;;31.40;52.50;;;;;;5032552;28;20641;-60
2022/10/20 09:37:53;;;;;;;4.20;1.67;;;31.40;55.00;;;;;;5032622;28;20195;-59
2022/10/20 09:40:21;;;;;;;1.52;1.42;;;33.20;86.90;;;;;;5032620;28;20206;-59
2022/10/20 09:42:53;;;;;;;2.42;1.60;;;33.10;52.00;;;;;;5032406;28;20172;-62
2022/10/20 09:45:22;;;;;;;1.83;1.60;;;33.60;50.80;;;;;;5032691;28;20529;-59
2022/10/20 09:47:52;;;;;;;1.77;1.55;;;33.50;49.60;;;;;;5039229;28;20198;-58
2022/10/20 09:50:25;;;;;;;1.25;1.17;;;32.90;49.20;;;;;;5052134;28;20183;-60
2022/10/20 09:52:52;;;;;;;1.60;1.50;;;32.30;50.90;;;;;;5052446;28;20300;-62
2022/10/20 09:55:31;;;;;;;1.45;1.35;;;33.50;51.00;;;;;;5052661;28;20170;-62
2022/10/20 09:57:59;;;;;;;1.30;1.27;;;33.40;48.10;;;;;;5052276;28;20271;-57
2022/10/20 10:00:35;;;;;;;1.50;1.40;;;32.60;50.80;;;;;;5052251;28;20381;-59
2022/10/20 10:03:27;;;;;;;1.52;1.42;;;34.20;48.10;;;;;;5052446;28;20678;-60
2022/10/20 10:05:53;;;;;;;1.00;1.00;;;;;;;;;;5049485;28;20685;-61
2022/10/20 10:08:21;;;;;;;1.92;1.30;;;35.00;46.70;;;;;;5052008;28;20186;-59
2022/10/20 10:11:00;;;;;;;1.95;1.50;;;36.20;45.10;;;;;;5051839;28;20232;-60
2022/10/20 10:13:29;;;;;;;1.10;1.00;;;36.50;43.30;;;;;;5051718;28;20190;-60
2022/10/20 10:16:00;;;;;;;1.00;1.00;;;35.80;44.70;;;;;;5051899;28;20174;-59
2022/10/20 10:18:26;;;;;;;1.63;1.42;;;35.40;45.00;;;;;;5052130;28;20217;-61
2022/10/20 10:21:09;;;;;;;2.17;1.40;;;35.80;43.20;;;;;;5051765;28;20202;-58
2022/10/20 10:23:49;;;;;;;2.75;1.55;;;35.90;56.40;;;;;;5025020;28;20175;-61
2022/10/20 10:26:45;;;;;;;1.75;1.20;;;35.60;42.90;;;;;;5031826;28;20167;-60
2022/10/20 10:29:17;;;;;;;1.10;1.00;;;35.50;42.90;;;;;;5031840;28;20183;-61
2022/10/20 10:32:10;;;;;;;2.97;1.40;;;35.30;44.20;;;;;;5031813;28;20200;-58
2022/10/20 10:34:44;;;;;;;1.80;1.60;;;35.90;43.50;;;;;;4989876;28;20278;-60
2022/10/20 10:37:13;;;;;;;1.90;1.30;;;32.20;45.10;;;;;;4987846;28;20191;-62
2022/10/20 10:39:40;;;;;;;1.30;1.20;;;32.40;45.40;;;;;;4989215;28;20196;-59
2022/10/20 10:42:18;;;;;;;3.08;1.30;;;34.00;44.30;;;;;;4989495;28;20220;-60
2022/10/20 10:45:23;;;;;;;1.35;1.25;;;33.90;43.10;;;;;;4988827;28;20173;-60
2022/10/20 10:48:10;;;;;;;1.65;1.30;;;32.30;44.70;;;;;;4974444;28;20621;-60
2022/10/20 10:50:58;;;;;;;1.88;1.60;;;30.80;44.50;;;;;;4989869;28;20594;-60
2022/10/20 10:54:01;;;;;;;1.50;1.40;;;30.70;45.10;;;;;;4989463;28;20561;-62
2022/10/20 10:56:47;;;;;;;2.22;1.60;;;29.80;46.30;;;;;;4989694;28;20164;-62
2022/10/20 10:59:19;;;;;;;2.28;1.30;;;30.10;68.10;;;;;;4990903;28;20359;-59
2022/10/20 11:02:12;;;;;;;2.50;1.67;;;30.30;46.70;;;;;;4973515;28;20208;-60
2022/10/20 11:05:01;;;;;;;1.40;1.30;;;31.40;46.50;;;;;;4989448;28;20544;-62
2022/10/20 11:07:42;;;;;;;1.88;1.40;;;35.30;46.90;;;;;;4989737;28;20718;-62
2022/10/20 11:10:21;;;;;;;1.58;1.48;;;32.30;45.60;;;;;;4989651;28;20240;-60
2022/10/20 11:12:46;;;;;;;1.65;1.55;;;32.50;45.10;;;;;;5028380;28;20183;-62
2022/10/20 11:15:42;;;;;;;1.67;1.50;;;31.70;45.60;;;;;;5031013;28;20225;-61
2022/10/20 11:18:29;;;;;;;1.63;1.20;;;31.50;46.40;;;;;;5031437;28;20215;-61
2022/10/20 11:21:32;;;;;;;1.48;1.38;;;31.00;44.50;;;;;;5031074;28;20629;-62
2022/10/20 11:24:22;;;;;;;1.50;1.40;;;31.90;44.70;;;;;;5030895;28;20174;-63
2022/10/20 11:26:53;;;;;;;2.78;1.20;;;32.00;44.90;;;;;;5031166;28;20176;-58
2022/10/20 11:29:46;;;;;;;1.58;1.40;;;32.70;44.70;;;;;;5031132;28;20210;-60
2022/10/20 11:32:33;;;;;;;2.20;1.60;;;32.60;42.80;;;;;;5031098;28;20167;-61
2022/10/20 11:35:37;;;;;;;1.33;1.23;;;32.60;46.80;;;;;;5031062;28;20167;-58
2022/10/20 11:38:11;;;;;;;1.30;1.17;;;31.50;45.30;;;;;;5030999;28;20191;-61
2022/10/20 11:40:39;;;;;;;1.33;1.20;;;31.70;44.50;;;;;;5031108;28;20222;-62
2022/10/20 11:43:20;;;;;;;1.33;1.23;;;32.10;44.50;;;;;;5031205;28;20175;-59
2022/10/20 11:46:09;;;;;;;2.08;1.30;;;32.30;44.60;;;;;;5030762;28;20207;-60
2022/10/20 11:48:43;;;;;;;1.50;1.40;;;32.30;43.50;;;;;;5030910;28;20973;-59
2022/10/20 11:51:19;;;;;;;1.60;1.50;;;30.80;46.40;;;;;;5030966;28;20682;-60
2022/10/20 11:53:55;;;;;;;2.22;1.15;;;31.30;65.70;;;;;;5031095;28;20388;-61
2022/10/20 11:56:45;;;;;;;1.27;1.17;;;31.80;45.80;;;;;;5032884;28;20187;-60
2022/10/20 11:59:37;;;;;;;1.10;1.10;;;32.60;44.00;;;;;;5034522;28;20207;-60
2022/10/20 12:02:29;;;;;;;2.85;1.70;;;31.70;44.90;;;;;;5034732;28;20577;-60
2022/10/20 12:05:10;;;;;;;1.52;1.42;;;30.70;45.40;;;;;;5034412;28;20164;-60
2022/10/20 12:07:38;;;;;;;1.73;1.60;;;30.80;45.90;;;;;;5034647;28;20615;-60
2022/10/20 12:10:50;;;;;;;1.83;1.30;;;30.30;45.90;;;;;;5034519;28;20689;-61
2022/10/20 12:13:37;;;;;;;1.70;1.60;;;29.70;46.20;;;;;;5028313;28;20210;-59
2022/10/20 12:16:03;;;;;;;1.50;1.40;;;29.60;46.60;;;;;;5034371;28;20171;-59
2022/10/20 12:18:34;;;;;;;2.08;1.50;;;29.70;48.00;;;;;;5034282;28;20195;-60
2022/10/20 12:21:01;;;;;;;1.63;1.50;;;30.00;46.30;;;;;;5034203;28;20215;-61
2022/10/20 12:23:43;;;;;;;1.20;1.20;;;29.50;46.40;;;;;;5033609;28;20254;-60
2022/10/20 12:26:33;;;;;;;1.50;1.40;;;29.00;47.80;;;;;;5034226;28;20190;-60
2022/10/20 12:29:00;;;;;;;2.63;1.55;;;30.70;47.20;;;;;;5033725;28;20192;-59
2022/10/20 12:32:04;;;;;;;2.22;1.60;;;30.80;48.20;;;;;;5034110;28;20176;-60
2022/10/20 12:34:39;;;;;;;1.70;1.40;;;31.40;47.10;;;;;;5033598;28;20175;-62
2022/10/20 12:37:15;;;;;;;2.42;1.50;;;30.80;46.20;;;;;;5033827;28;20632;-59
2022/10/20 12:39:41;;;;;;;2.55;1.80;;;30.10;46.60;;;;;;5033589;28;20241;-62
2022/10/20 12:42:27;;;;;;;1.65;1.55;;;30.00;47.00;;;;;;5033752;28;20633;-60
2022/10/20 12:44:53;;;;;;;3.25;1.48;;;28.40;48.70;;;;;;5033694;28;20167;-60
2022/10/20 12:47:24;;;;;;;1.50;1.40;;;28.00;49.60;;;;;;5033717;28;20176;-60
2022/10/20 12:49:56;;;;;;;2.97;1.40;;;28.30;49.70;;;;;;5033571;28;20183;-59
2022/10/20 12:52:35;;;;;;;1.60;1.50;;;28.70;49.90;;;;;;5033635;28;20172;-60
2022/10/20 12:55:16;;;;;;;3.67;1.63;;;28.80;50.10;;;;;;5033009;28;20175;-59
2022/10/20 12:57:43;;;;;;;1.60;1.50;;;28.50;49.30;;;;;;5033489;28;20208;-58
2022/10/20 13:00:18;;;;;;;3.10;1.60;;;28.10;50.30;;;;;;5033465;28;20180;-61
2022/10/20 13:02:57;;;;;;;1.95;1.80;;;28.30;50.90;;;;;;5033422;28;20167;-61
2022/10/20 13:05:42;;;;;;;2.00;1.58;;;28.30;49.40;;;;;;5033265;28;20160;-59
2022/10/20 13:08:17;;;;;;;1.98;1.63;;;27.60;49.90;;;;;;5033053;28;20196;-60
2022/10/20 13:10:43;;;;;;;2.05;1.73;;;27.20;51.50;;;;;;5033366;28;20171;-59
2022/10/20 13:13:09;;;;;;;1.73;1.60;;;27.20;51.80;;;;;;5032902;28;20233;-59
2022/10/20 13:15:34;;;;;;;2.05;1.77;;;27.40;50.90;;;;;;5033244;28;20179;-58
2022/10/20 13:18:12;;;;;;;2.25;1.60;;;27.50;51.30;;;;;;5032305;28;20673;-62
2022/10/20 13:21:05;;;;;;;2.15;1.75;;;28.00;52.50;;;;;;5034275;28;20683;-59